Time;durP1;ratioP1;P1;durP2;ratioP2;P2;SDS_P1;SDS_P2;PMS_P1;PMS_P2;Temp;Humidity;BMP_temperature;BMP_pressure;BME280_temperature;BME280_humidity;BME280_pressure;Samples;Min_cycle;Max_cycle;Signal;HPM_P1;HPM_P2
2021/04/27 00:01:55;;;;;;;7.43;3.77;;;1.70;99.90;;;;;;5027268;28;20240;-63
2021/04/27 00:04:20;;;;;;;6.67;4.03;;;1.70;99.90;;;;;;5027839;28;20188;-62
2021/04/27 00:06:46;;;;;;;4.17;3.77;;;1.60;1.00;;;;;;5028180;28;20552;-63
2021/04/27 00:09:11;;;;;;;4.83;4.30;;;1.60;1.00;;;;;;5029013;28;20523;-63
2021/04/27 00:11:37;;;;;;;5.00;4.27;;;1.60;1.00;;;;;;5031733;28;20186;-62
2021/04/27 00:14:04;;;;;;;4.07;3.70;;;1.60;1.00;;;;;;5033690;28;20567;-63
2021/04/27 00:16:30;;;;;;;9.63;4.18;;;1.50;1.00;;;;;;5036234;28;20940;-63
2021/04/27 00:18:56;;;;;;;6.03;4.10;;;1.50;1.00;;;;;;5032364;28;20198;-62
2021/04/27 00:21:21;;;;;;;5.47;4.00;;;1.50;1.00;;;;;;5030907;28;20437;-62
2021/04/27 00:23:47;;;;;;;4.20;3.80;;;1.50;1.00;;;;;;5022092;28;20246;-62
2021/04/27 00:26:12;;;;;;;5.50;3.60;;;1.50;1.00;;;;;;5032344;28;20240;-70
2021/04/27 00:28:38;;;;;;;4.37;3.97;;;1.40;1.00;;;;;;5031053;28;20326;-63
2021/04/27 00:31:04;;;;;;;4.83;4.00;;;1.40;1.00;;;;;;5031918;28;20701;-63
2021/04/27 00:33:29;;;;;;;4.27;3.87;;;1.30;1.00;;;;;;5026236;28;20185;-66
2021/04/27 00:35:55;;;;;;;4.70;4.10;;;1.30;1.00;;;;;;5024367;28;20581;-62
2021/04/27 00:38:20;;;;;;;5.10;3.53;;;1.30;1.00;;;;;;5036418;28;20318;-63
2021/04/27 00:40:46;;;;;;;4.57;4.00;;;1.20;1.00;;;;;;5038697;28;20187;-62
2021/04/27 00:43:12;;;;;;;4.17;3.70;;;1.20;1.00;;;;;;5031694;28;20185;-63
2021/04/27 00:45:38;;;;;;;4.67;4.23;;;1.20;1.00;;;;;;5022870;28;20187;-63
2021/04/27 00:48:04;;;;;;;4.40;3.73;;;1.20;1.00;;;;;;5026689;28;20934;-63
2021/04/27 00:50:32;;;;;;;4.10;3.50;;;1.10;1.00;;;;;;5031573;28;20734;-63
2021/04/27 00:52:59;;;;;;;5.30;3.83;;;1.10;1.00;;;;;;5026494;28;20183;-66
2021/04/27 00:55:25;;;;;;;4.18;3.78;;;1.10;1.00;;;;;;5018311;28;20196;-62
2021/04/27 00:57:52;;;;;;;5.15;4.07;;;1.00;1.00;;;;;;5031560;28;20250;-67
2021/04/27 01:00:21;;;;;;;4.35;3.95;;;1.00;1.00;;;;;;5030652;28;20217;-62
2021/04/27 01:02:47;;;;;;;4.20;3.80;;;1.00;1.00;;;;;;5025851;28;20184;-63
2021/04/27 01:05:16;;;;;;;3.75;3.45;;;0.90;1.00;;;;;;5024686;28;20183;-62
2021/04/27 01:07:53;;;;;;;5.93;3.90;;;0.90;1.00;;;;;;5026602;28;20272;-62
2021/04/27 01:10:24;;;;;;;4.10;3.67;;;0.80;1.00;;;;;;5031337;28;20232;-63
2021/04/27 01:13:02;;;;;;;4.43;4.00;;;0.80;1.00;;;;;;5030705;28;20183;-63
2021/04/27 01:15:28;;;;;;;4.47;3.70;;;0.80;1.00;;;;;;5039750;28;20187;-63
2021/04/27 01:17:57;;;;;;;4.32;3.90;;;0.70;1.00;;;;;;5028795;28;20203;-63
2021/04/27 01:20:45;;;;;;;5.95;4.30;;;0.70;1.00;;;;;;5030426;28;20647;-63
2021/04/27 01:23:11;;;;;;;3.88;3.58;;;0.70;1.00;;;;;;5030758;28;20596;-63
2021/04/27 01:26:01;;;;;;;4.40;3.83;;;0.70;1.00;;;;;;5029360;28;20188;-63
2021/04/27 01:28:28;;;;;;;7.38;4.00;;;0.60;1.00;;;;;;5031121;28;20650;-63
2021/04/27 01:30:56;;;;;;;4.47;3.67;;;0.50;1.00;;;;;;5030309;28;20299;-63
2021/04/27 01:33:26;;;;;;;8.20;4.40;;;0.50;1.00;;;;;;5024979;28;20637;-61
2021/04/27 01:35:53;;;;;;;5.10;4.10;;;0.40;1.00;;;;;;5025781;28;20187;-62
2021/04/27 01:38:20;;;;;;;5.13;3.88;;;0.40;1.00;;;;;;5030842;28;20203;-62
2021/04/27 01:40:47;;;;;;;4.03;3.63;;;0.40;1.00;;;;;;5030140;28;20504;-62
2021/04/27 01:43:13;;;;;;;4.50;3.92;;;0.40;1.00;;;;;;5030886;28;20193;-63
2021/04/27 01:45:39;;;;;;;4.95;4.10;;;0.40;1.00;;;;;;5030685;28;20546;-63
2021/04/27 01:48:06;;;;;;;4.22;3.42;;;0.40;1.00;;;;;;5031209;28;20191;-63
2021/04/27 01:50:32;;;;;;;4.60;4.20;;;0.30;1.00;;;;;;5028551;28;20183;-63
2021/04/27 01:52:59;;;;;;;4.38;3.95;;;0.30;1.00;;;;;;5029925;28;20763;-63
2021/04/27 01:55:24;;;;;;;7.15;4.28;;;0.30;1.00;;;;;;5030623;28;20179;-69
2021/04/27 01:57:50;;;;;;;5.90;4.43;;;0.20;1.00;;;;;;5029106;28;20217;-64
2021/04/27 02:00:20;;;;;;;4.90;4.10;;;0.20;1.00;;;;;;5029494;28;21070;-61
2021/04/27 02:02:48;;;;;;;4.88;4.13;;;0.20;1.00;;;;;;5029979;28;20185;-60
2021/04/27 02:05:14;;;;;;;5.38;3.72;;;0.20;1.00;;;;;;5028482;28;20171;-61
2021/04/27 02:07:40;;;;;;;5.93;4.15;;;0.20;1.00;;;;;;5028421;28;20244;-60
2021/04/27 02:10:09;;;;;;;5.78;4.30;;;0.20;1.00;;;;;;5021998;28;20174;-60
2021/04/27 02:12:36;;;;;;;4.82;3.92;;;0.10;1.00;;;;;;5030191;28;20216;-61
2021/04/27 02:15:04;;;;;;;5.28;4.35;;;0.10;1.00;;;;;;5030966;28;20178;-62
2021/04/27 02:17:43;;;;;;;4.70;4.13;;;0.00;1.00;;;;;;5022178;28;20540;-59
2021/04/27 02:20:09;;;;;;;4.85;4.22;;;0.00;1.00;;;;;;5029722;28;20234;-60
2021/04/27 02:22:35;;;;;;;4.50;4.03;;;-0.10;1.00;;;;;;5028478;28;20190;-61
2021/04/27 02:25:01;;;;;;;4.90;4.27;;;-0.10;1.00;;;;;;5029426;28;20213;-61
2021/04/27 02:27:30;;;;;;;4.85;4.20;;;-0.10;1.00;;;;;;5029036;28;20276;-60
2021/04/27 02:29:57;;;;;;;4.82;4.32;;;-0.10;1.00;;;;;;5027873;28;20241;-60
2021/04/27 02:32:22;;;;;;;4.65;3.67;;;-0.10;1.00;;;;;;5029516;28;20194;-60
2021/04/27 02:34:49;;;;;;;5.20;4.73;;;-0.20;1.00;;;;;;5026884;28;20187;-61
2021/04/27 02:37:17;;;;;;;4.80;4.03;;;-0.20;1.00;;;;;;5044580;28;20683;-60
2021/04/27 02:39:43;;;;;;;4.68;4.28;;;-0.20;1.00;;;;;;5029349;28;20213;-60
2021/04/27 02:42:09;;;;;;;4.50;4.10;;;-0.20;1.00;;;;;;5029734;28;20195;-55
2021/04/27 02:44:35;;;;;;;4.90;4.05;;;-0.30;1.00;;;;;;5027303;28;20425;-60
2021/04/27 02:47:02;;;;;;;4.97;3.35;;;-0.30;1.00;;;;;;5011636;28;20187;-58
2021/04/27 02:49:29;;;;;;;5.15;4.43;;;-0.40;1.00;;;;;;5029514;28;20179;-60
2021/04/27 02:51:54;;;;;;;4.70;3.75;;;-0.40;1.00;;;;;;5029370;28;20564;-60
2021/04/27 02:54:20;;;;;;;4.47;4.07;;;-0.40;1.00;;;;;;5026672;28;20178;-60
2021/04/27 02:56:45;;;;;;;4.37;3.80;;;-0.50;1.00;;;;;;5029551;28;20190;-60
2021/04/27 02:59:11;;;;;;;5.20;4.07;;;-0.50;1.00;;;;;;5029125;28;20284;-60
2021/04/27 03:01:36;;;;;;;6.77;4.20;;;-0.50;4.10;;;;;;5018020;28;20191;-60
2021/04/27 03:04:03;;;;;;;4.57;4.17;;;-0.50;6.10;;;;;;5028860;28;20236;-61
2021/04/27 03:06:29;;;;;;;3.97;3.58;;;-0.50;7.60;;;;;;5029225;28;20542;-61
2021/04/27 03:08:54;;;;;;;7.83;4.10;;;-0.50;8.80;;;;;;5027938;28;20183;-60
2021/04/27 03:11:20;;;;;;;4.17;3.77;;;-0.50;11.40;;;;;;5028326;28;20186;-60
2021/04/27 03:13:45;;;;;;;4.83;3.80;;;-0.60;14.00;;;;;;5031027;28;20213;-60
2021/04/27 03:16:11;;;;;;;4.27;3.87;;;-0.60;16.80;;;;;;5030782;28;20197;-61
2021/04/27 03:18:37;;;;;;;5.67;4.37;;;-0.60;18.60;;;;;;5025420;28;20703;-61
2021/04/27 03:21:03;;;;;;;8.53;4.47;;;-0.60;18.20;;;;;;5027569;28;20174;-60
2021/04/27 03:23:29;;;;;;;4.53;4.07;;;-0.60;20.30;;;;;;5027670;28;20486;-60
2021/04/27 03:25:54;;;;;;;5.17;4.50;;;-0.70;23.00;;;;;;5029255;28;20417;-57
2021/04/27 03:28:20;;;;;;;5.07;4.57;;;-0.70;22.20;;;;;;5027118;28;20923;-60
2021/04/27 03:30:46;;;;;;;4.40;3.97;;;-0.70;24.20;;;;;;5028483;28;20254;-60
2021/04/27 03:33:12;;;;;;;5.07;4.30;;;-0.70;24.00;;;;;;5028401;28;20190;-60
2021/04/27 03:35:40;;;;;;;5.00;4.50;;;-0.70;25.30;;;;;;5025924;28;20417;-60
2021/04/27 03:38:06;;;;;;;5.90;3.97;;;-0.80;27.70;;;;;;5026616;28;20183;-60
2021/04/27 03:40:31;;;;;;;8.07;4.20;;;-0.80;28.20;;;;;;5029184;28;20234;-59
2021/04/27 03:42:57;;;;;;;5.00;4.17;;;-0.80;28.50;;;;;;5027537;28;20182;-57
2021/04/27 03:45:34;;;;;;;5.63;4.13;;;-0.80;28.30;;;;;;5031230;28;20225;-60
2021/04/27 03:48:11;;;;;;;5.65;4.05;;;-0.80;28.20;;;;;;5029693;28;20227;-59
2021/04/27 03:50:37;;;;;;;10.75;4.50;;;-0.80;27.50;;;;;;5024797;28;20206;-60
2021/04/27 03:53:03;;;;;;;6.97;4.60;;;-0.80;26.50;;;;;;5029375;28;20665;-61
2021/04/27 03:55:29;;;;;;;5.47;4.40;;;-0.80;27.30;;;;;;5032450;28;20186;-60
2021/04/27 03:57:55;;;;;;;4.60;3.93;;;-0.80;29.70;;;;;;5024204;28;20183;-60
2021/04/27 04:00:21;;;;;;;8.60;6.50;;;-0.80;31.30;;;;;;5019651;28;20229;-61
2021/04/27 04:02:46;;;;;;;12.70;11.50;;;-0.80;30.50;;;;;;5032643;28;21019;-61
2021/04/27 04:05:13;;;;;;;6.60;6.00;;;-0.80;29.80;;;;;;5031998;28;20258;-61
2021/04/27 04:07:39;;;;;;;6.75;4.65;;;-0.80;28.50;;;;;;5032245;28;20243;-61
2021/04/27 04:10:07;;;;;;;5.68;4.57;;;-0.80;27.90;;;;;;5030184;28;20222;-62
2021/04/27 04:12:32;;;;;;;4.93;4.45;;;-0.80;27.30;;;;;;5032255;28;20243;-60
2021/04/27 04:14:58;;;;;;;5.83;4.00;;;-0.80;27.60;;;;;;5035773;28;20598;-61
2021/04/27 04:17:24;;;;;;;5.05;4.32;;;-0.80;28.60;;;;;;5026982;28;20191;-61
2021/04/27 04:19:50;;;;;;;6.97;5.05;;;-0.80;31.60;;;;;;5022927;28;20230;-59
2021/04/27 04:22:15;;;;;;;4.80;4.27;;;-0.80;35.10;;;;;;5018811;28;20187;-60
2021/04/27 04:24:41;;;;;;;4.27;3.87;;;-0.80;36.80;;;;;;5009671;28;20245;-60
2021/04/27 04:27:07;;;;;;;6.93;4.33;;;-0.70;38.20;;;;;;5019439;28;20195;-60
2021/04/27 04:29:33;;;;;;;5.93;4.40;;;-0.70;39.40;;;;;;5004712;28;20246;-60
2021/04/27 04:31:58;;;;;;;4.53;4.00;;;-0.70;40.10;;;;;;5010830;28;20471;-61
2021/04/27 04:34:24;;;;;;;8.30;4.83;;;-0.60;38.10;;;;;;5010295;28;20214;-60
2021/04/27 04:36:49;;;;;;;6.57;4.90;;;-0.60;37.30;;;;;;5007717;28;20274;-61
2021/04/27 04:39:15;;;;;;;5.43;4.90;;;-0.60;36.40;;;;;;5030418;28;20225;-60
2021/04/27 04:41:41;;;;;;;5.63;4.68;;;-0.50;36.90;;;;;;5031028;28;20171;-61
2021/04/27 04:44:07;;;;;;;6.50;4.90;;;-0.50;34.80;;;;;;5030055;28;20591;-61
2021/04/27 04:46:33;;;;;;;5.72;5.03;;;-0.50;34.70;;;;;;5032051;28;20194;-60
2021/04/27 04:48:59;;;;;;;7.00;4.95;;;-0.40;34.70;;;;;;5032011;28;20238;-60
2021/04/27 04:51:25;;;;;;;7.30;5.32;;;-0.40;34.00;;;;;;5031234;28;20731;-61
2021/04/27 04:53:52;;;;;;;9.57;5.03;;;-0.40;33.50;;;;;;5027344;28;20197;-61
2021/04/27 04:56:19;;;;;;;7.68;5.15;;;-0.30;32.20;;;;;;5030617;28;20186;-61
2021/04/27 04:58:44;;;;;;;7.82;5.40;;;-0.30;30.60;;;;;;5031212;28;20298;-61
2021/04/27 05:01:10;;;;;;;6.07;4.80;;;-0.20;30.10;;;;;;5027834;28;20258;-61
2021/04/27 05:03:35;;;;;;;6.60;5.27;;;-0.20;29.70;;;;;;5031301;28;20656;-61
2021/04/27 05:06:01;;;;;;;6.77;4.90;;;-0.10;27.90;;;;;;5030050;28;20285;-60
2021/04/27 05:08:34;;;;;;;8.23;4.50;;;-0.10;22.20;;;;;;5015893;28;20202;-61
2021/04/27 05:10:59;;;;;;;8.48;5.35;;;-0.10;19.00;;;;;;5031167;28;20276;-61
2021/04/27 05:13:25;;;;;;;9.50;5.87;;;0.00;17.60;;;;;;5029986;28;20237;-60
2021/04/27 05:15:50;;;;;;;6.10;5.50;;;0.00;16.40;;;;;;5042214;28;20191;-60
2021/04/27 05:18:16;;;;;;;5.73;5.13;;;0.10;15.50;;;;;;5023664;28;20180;-61
2021/04/27 05:20:42;;;;;;;7.15;5.38;;;0.20;6.90;;;;;;5018841;28;20178;-61
2021/04/27 05:23:08;;;;;;;7.90;5.00;;;0.20;1.20;;;;;;5029921;28;20723;-61
2021/04/27 05:25:33;;;;;;;4.63;4.20;;;0.20;1.00;;;;;;5031103;28;20257;-61
2021/04/27 05:27:59;;;;;;;6.83;5.20;;;0.30;1.00;;;;;;5023973;28;20633;-61
2021/04/27 05:30:25;;;;;;;6.77;6.07;;;0.40;1.00;;;;;;5030715;28;20564;-61
2021/04/27 05:32:51;;;;;;;10.27;5.57;;;0.40;1.00;;;;;;5029001;28;20442;-61
2021/04/27 05:35:16;;;;;;;7.60;5.80;;;0.50;1.00;;;;;;5030759;28;20875;-60
2021/04/27 05:37:42;;;;;;;6.50;4.67;;;0.50;1.00;;;;;;5030798;28;20421;-61
2021/04/27 05:40:09;;;;;;;6.10;5.50;;;0.60;1.00;;;;;;5028937;28;20673;-60
2021/04/27 05:42:35;;;;;;;6.20;5.35;;;0.60;1.00;;;;;;5029531;28;20204;-60
2021/04/27 05:45:02;;;;;;;8.60;5.50;;;0.70;1.00;;;;;;5030497;28;20225;-59
2021/04/27 05:47:28;;;;;;;6.55;4.90;;;0.70;1.00;;;;;;5029705;28;20178;-60
2021/04/27 05:49:54;;;;;;;7.90;5.57;;;0.80;1.00;;;;;;5029648;28;20189;-60
2021/04/27 05:52:19;;;;;;;5.20;4.70;;;0.90;1.00;;;;;;5029775;28;20574;-60
2021/04/27 05:54:45;;;;;;;6.97;5.33;;;0.90;1.00;;;;;;5024968;28;20921;-60
2021/04/27 05:57:10;;;;;;;7.57;5.20;;;1.00;1.00;;;;;;5030686;28;20219;-60
2021/04/27 05:59:36;;;;;;;6.93;5.10;;;1.10;1.00;;;;;;5029001;28;20305;-60
2021/04/27 06:02:02;;;;;;;6.53;4.93;;;1.20;1.00;;;;;;5030447;28;20182;-60
2021/04/27 06:04:27;;;;;;;6.83;4.80;;;1.30;1.00;;;;;;5030096;28;20623;-60
2021/04/27 06:06:53;;;;;;;10.30;6.23;;;1.40;1.00;;;;;;5030308;28;20182;-60
2021/04/27 06:09:18;;;;;;;7.40;5.53;;;1.50;1.00;;;;;;5028498;28;20177;-60
2021/04/27 06:11:44;;;;;;;7.63;5.00;;;1.70;1.00;;;;;;5020233;28;20276;-60
2021/04/27 06:14:10;;;;;;;5.70;5.10;;;1.80;1.00;;;;;;5032205;28;20190;-61
2021/04/27 06:16:36;;;;;;;6.30;4.85;;;1.90;1.00;;;;;;5019054;28;20177;-60
2021/04/27 06:19:02;;;;;;;7.60;5.10;;;2.00;99.90;;;;;;5025883;28;20219;-64
2021/04/27 06:21:28;;;;;;;8.30;4.88;;;2.00;99.90;;;;;;5029361;28;20188;-68
2021/04/27 06:23:53;;;;;;;7.13;4.80;;;2.20;99.90;;;;;;5029763;28;20247;-67
2021/04/27 06:26:20;;;;;;;6.30;4.60;;;2.20;99.90;;;;;;5029223;28;20424;-67
2021/04/27 06:28:45;;;;;;;5.72;4.78;;;2.40;6.10;;;;;;5029568;28;20240;-66
2021/04/27 06:31:11;;;;;;;6.90;5.13;;;2.50;1.00;;;;;;5028139;28;20640;-65
2021/04/27 06:33:37;;;;;;;5.60;5.00;;;2.70;99.90;;;;;;5035484;28;20445;-66
2021/04/27 06:36:03;;;;;;;5.30;4.60;;;2.80;1.00;;;;;;5029250;28;20185;-66
2021/04/27 06:38:29;;;;;;;6.20;5.57;;;2.90;1.00;;;;;;5029379;28;20217;-65
2021/04/27 06:40:55;;;;;;;6.40;5.70;;;3.00;99.90;;;;;;5029355;28;20181;-67
2021/04/27 06:43:22;;;;;;;8.77;5.60;;;3.00;90.10;;;;;;5027368;28;20526;-67
2021/04/27 06:45:47;;;;;;;7.30;5.40;;;3.10;99.90;;;;;;5029433;28;20200;-66
2021/04/27 06:48:13;;;;;;;10.17;5.03;;;3.20;22.40;;;;;;5028721;28;20182;-64
2021/04/27 06:50:39;;;;;;;6.53;5.60;;;3.30;1.00;;;;;;5028482;28;20182;-66
2021/04/27 06:53:05;;;;;;;6.60;5.70;;;3.50;29.60;;;;;;5028534;28;20179;-66
2021/04/27 06:55:31;;;;;;;5.80;5.23;;;3.60;99.90;;;;;;5029141;28;20187;-61
2021/04/27 06:58:06;;;;;;;6.33;5.73;;;3.70;1.00;;;;;;5028883;28;20958;-60
2021/04/27 07:00:32;;;;;;;12.45;5.55;;;3.90;99.90;;;;;;5020657;28;20210;-65
2021/04/27 07:02:58;;;;;;;6.25;5.47;;;4.00;1.00;;;;;;5028952;28;20217;-64
2021/04/27 07:05:24;;;;;;;7.73;5.87;;;4.10;99.90;;;;;;5028876;28;20221;-63
2021/04/27 07:07:49;;;;;;;6.03;5.43;;;4.30;99.90;;;;;;5028809;28;20639;-61
2021/04/27 07:10:15;;;;;;;15.20;5.20;;;4.40;99.90;;;;;;5028862;28;20791;-64
2021/04/27 07:12:41;;;;;;;6.97;5.40;;;4.60;1.00;;;;;;5028782;28;20186;-60
2021/04/27 07:15:07;;;;;;;5.80;5.30;;;4.70;1.00;;;;;;5026689;28;20213;-61
2021/04/27 07:17:32;;;;;;;5.50;5.00;;;4.90;1.00;;;;;;5027833;28;20672;-62
2021/04/27 07:19:58;;;;;;;5.57;5.00;;;5.00;1.00;;;;;;5026807;28;20233;-61
2021/04/27 07:22:26;;;;;;;5.23;4.73;;;5.20;99.90;;;;;;5027142;28;20532;-63
2021/04/27 07:24:52;;;;;;;6.50;5.70;;;5.40;99.90;;;;;;5027517;28;20187;-61
2021/04/27 07:27:18;;;;;;;7.20;5.20;;;5.70;99.90;;;;;;5027569;28;20657;-61
2021/04/27 07:29:44;;;;;;;6.10;5.00;;;5.90;34.80;;;;;;5027133;28;20223;-61
2021/04/27 07:32:11;;;;;;;5.93;5.10;;;6.00;1.00;;;;;;5026742;28;20513;-61
2021/04/27 07:34:38;;;;;;;6.45;4.93;;;6.20;1.00;;;;;;5027409;28;20179;-60
2021/04/27 07:37:03;;;;;;;8.23;5.10;;;6.40;1.00;;;;;;5027322;28;20182;-61
2021/04/27 07:39:29;;;;;;;7.60;4.83;;;6.60;1.00;;;;;;5026854;28;20611;-61
2021/04/27 07:41:55;;;;;;;5.37;4.53;;;6.80;1.00;;;;;;5027692;28;20657;-62
2021/04/27 07:44:20;;;;;;;5.53;4.97;;;7.20;1.00;;;;;;5027432;28;20181;-59
2021/04/27 07:46:46;;;;;;;5.20;4.70;;;7.30;1.00;;;;;;5027265;28;20188;-61
2021/04/27 07:49:11;;;;;;;5.40;4.87;;;7.50;1.00;;;;;;5022799;28;20188;-63
2021/04/27 07:51:37;;;;;;;4.47;4.17;;;7.70;1.00;;;;;;5022516;28;20189;-66
2021/04/27 07:54:03;;;;;;;6.27;5.67;;;7.80;99.90;;;;;;5027492;28;20185;-61
2021/04/27 07:56:30;;;;;;;4.80;4.40;;;7.90;99.90;;;;;;5027260;28;20189;-61
2021/04/27 07:58:57;;;;;;;4.90;4.40;;;8.00;99.90;;;;;;5027290;28;20957;-61
2021/04/27 08:01:23;;;;;;;4.60;4.03;;;8.20;99.90;;;;;;5026964;28;20415;-61
2021/04/27 08:03:48;;;;;;;7.10;4.00;;;8.30;99.90;;;;;;5026854;28;20438;-64
2021/04/27 08:06:14;;;;;;;4.57;3.97;;;8.50;99.90;;;;;;5027137;28;20178;-65
2021/04/27 08:08:40;;;;;;;5.07;3.70;;;8.70;99.90;;;;;;5027279;28;20173;-61
2021/04/27 08:11:06;;;;;;;5.17;3.67;;;8.90;99.90;;;;;;5027193;28;20412;-62
2021/04/27 08:13:31;;;;;;;4.60;4.20;;;9.00;99.90;;;;;;5027167;28;20181;-62
2021/04/27 08:15:57;;;;;;;3.90;3.60;;;9.20;99.90;;;;;;5024714;28;20210;-63
2021/04/27 08:18:23;;;;;;;4.40;3.93;;;9.30;99.90;;;;;;5027172;28;20178;-63
2021/04/27 08:20:48;;;;;;;4.27;3.90;;;9.60;99.90;;;;;;5026892;28;20445;-61
2021/04/27 08:23:14;;;;;;;4.10;3.70;;;9.70;99.90;;;;;;5027145;28;20262;-60
2021/04/27 08:25:40;;;;;;;4.10;3.87;;;9.90;99.90;;;;;;5026109;28;20977;-65
2021/04/27 08:28:05;;;;;;;4.10;3.80;;;10.00;99.90;;;;;;5036540;28;20668;-60
2021/04/27 08:30:33;;;;;;;4.80;4.23;;;10.20;99.90;;;;;;5024306;28;20245;-59
2021/04/27 08:32:59;;;;;;;3.90;3.60;;;10.20;99.90;;;;;;5030258;28;20206;-63
2021/04/27 08:35:25;;;;;;;4.93;4.20;;;10.30;99.90;;;;;;5030108;28;20448;-63
2021/04/27 08:37:50;;;;;;;4.30;4.00;;;10.50;99.90;;;;;;5025483;28;21265;-63
2021/04/27 08:40:17;;;;;;;4.40;4.10;;;10.70;99.90;;;;;;5022741;28;20229;-63
2021/04/27 08:42:46;;;;;;;3.93;3.73;;;11.00;99.90;;;;;;5028187;28;20182;-63
2021/04/27 08:45:12;;;;;;;5.60;3.87;;;11.30;99.90;;;;;;5029744;28;20822;-63
2021/04/27 08:47:38;;;;;;;4.20;3.83;;;11.50;99.90;;;;;;5029961;28;20471;-64
2021/04/27 08:50:06;;;;;;;4.50;4.00;;;11.80;99.90;;;;;;5029985;28;20909;-63
2021/04/27 08:52:32;;;;;;;4.00;3.70;;;12.20;99.90;;;;;;5024394;28;20230;-63
2021/04/27 08:54:58;;;;;;;4.30;3.90;;;12.50;99.90;;;;;;5021497;28;20449;-61
2021/04/27 08:57:24;;;;;;;4.47;4.07;;;12.60;99.90;;;;;;5031345;28;20759;-60
2021/04/27 08:59:51;;;;;;;4.70;4.30;;;12.90;99.90;;;;;;5029426;28;20516;-61
2021/04/27 09:02:28;;;;;;;4.50;4.20;;;13.20;99.90;;;;;;5030534;28;20180;-61
2021/04/27 09:04:54;;;;;;;4.77;4.43;;;13.60;99.90;;;;;;5031181;28;20438;-61
2021/04/27 09:07:21;;;;;;;4.30;4.00;;;13.80;99.90;;;;;;5029632;28;20462;-61
2021/04/27 09:09:50;;;;;;;4.50;4.00;;;14.00;99.90;;;;;;5030683;28;20181;-61
2021/04/27 09:12:22;;;;;;;4.83;3.87;;;14.60;99.90;;;;;;5030307;28;20413;-62
2021/04/27 09:14:47;;;;;;;4.90;4.50;;;15.30;99.90;;;;;;5039226;28;21008;-61
2021/04/27 09:17:13;;;;;;;4.43;4.10;;;15.80;99.90;;;;;;5043709;28;20491;-61
2021/04/27 09:19:48;;;;;;;6.20;4.47;;;16.00;99.90;;;;;;5020445;28;20520;-61
2021/04/27 09:22:14;;;;;;;4.40;4.10;;;16.40;99.90;;;;;;5030757;28;20906;-62
2021/04/27 09:24:55;;;;;;;5.00;4.50;;;16.70;99.90;;;;;;5019513;28;20424;-61
2021/04/27 09:27:30;;;;;;;3.93;3.73;;;17.10;99.90;;;;;;5029066;28;20201;-60
2021/04/27 09:29:58;;;;;;;4.23;3.93;;;17.90;99.90;;;;;;5027981;28;20550;-60
2021/04/27 09:32:39;;;;;;;4.43;4.03;;;18.40;99.90;;;;;;5024040;28;20512;-60
2021/04/27 09:35:34;;;;;;;4.70;4.40;;;19.10;99.90;;;;;;5024613;28;20935;-61
2021/04/27 09:38:07;;;;;;;4.60;4.30;;;19.50;99.90;;;;;;5027650;28;20421;-60
2021/04/27 09:40:42;;;;;;;4.70;4.40;;;19.60;99.90;;;;;;5028487;28;20524;-61
2021/04/27 09:43:07;;;;;;;5.00;4.70;;;19.90;99.90;;;;;;5024815;28;20437;-60
2021/04/27 09:45:41;;;;;;;4.60;4.20;;;20.10;99.90;;;;;;5013473;28;20491;-61
2021/04/27 09:48:08;;;;;;;5.00;4.57;;;19.60;99.90;;;;;;5017413;28;20929;-61
2021/04/27 09:50:34;;;;;;;4.30;4.00;;;19.70;99.90;;;;;;5029407;28;20428;-60
2021/04/27 09:53:01;;;;;;;4.63;4.23;;;19.90;99.90;;;;;;5028248;28;20780;-61
2021/04/27 09:55:30;;;;;;;4.10;3.80;;;20.30;99.90;;;;;;5027456;28;20437;-61
2021/04/27 09:57:56;;;;;;;4.80;4.20;;;20.40;99.90;;;;;;5027910;28;20540;-61
2021/04/27 10:00:33;;;;;;;4.37;4.07;;;20.70;99.90;;;;;;5027912;28;21228;-60
2021/04/27 10:03:08;;;;;;;4.40;4.00;;;20.60;99.90;;;;;;5027691;28;20536;-60
2021/04/27 10:05:36;;;;;;;4.43;4.03;;;21.40;99.90;;;;;;5028172;28;20817;-61
2021/04/27 10:08:02;;;;;;;4.10;3.80;;;21.60;99.90;;;;;;5025302;28;20438;-60
2021/04/27 10:10:34;;;;;;;4.30;4.00;;;21.80;99.90;;;;;;5028086;28;20427;-61
2021/04/27 10:13:01;;;;;;;4.57;4.20;;;21.80;99.90;;;;;;5027701;28;20502;-61
2021/04/27 10:15:27;;;;;;;4.30;3.90;;;22.10;99.90;;;;;;5027755;28;20417;-61
2021/04/27 10:17:53;;;;;;;4.23;4.00;;;22.30;99.90;;;;;;5027828;28;20949;-60
2021/04/27 10:20:19;;;;;;;4.00;3.77;;;22.60;99.90;;;;;;5027273;28;20469;-60
2021/04/27 10:22:48;;;;;;;4.90;4.60;;;22.10;99.90;;;;;;5027680;28;20182;-60
2021/04/27 10:25:28;;;;;;;4.00;3.73;;;21.90;99.90;;;;;;5027994;28;20214;-60
2021/04/27 10:31:16;;;;;;;3.90;3.60;;;22.90;99.90;;;;;;5018941;28;21301;-59
2021/04/27 10:34:00;;;;;;;3.97;3.67;;;23.00;99.90;;;;;;5027750;28;20449;-60
2021/04/27 10:36:26;;;;;;;3.60;3.30;;;23.00;99.90;;;;;;5027541;28;20228;-59
2021/04/27 10:39:00;;;;;;;6.50;3.70;;;23.30;99.90;;;;;;5027601;28;20464;-61
2021/04/27 10:41:45;;;;;;;4.20;3.90;;;23.20;99.90;;;;;;5027161;28;20777;-60
2021/04/27 10:44:12;;;;;;;4.10;3.80;;;23.40;99.90;;;;;;5020142;28;20432;-61
2021/04/27 10:46:38;;;;;;;3.83;3.63;;;23.30;99.90;;;;;;5028542;28;20417;-60
2021/04/27 10:49:30;;;;;;;3.77;3.57;;;23.50;99.90;;;;;;5026796;28;20504;-60
2021/04/27 10:51:57;;;;;;;4.20;3.90;;;23.80;99.90;;;;;;5014859;28;20239;-59
2021/04/27 10:54:34;;;;;;;4.37;4.07;;;23.20;99.90;;;;;;5027535;28;20468;-58
2021/04/27 10:57:05;;;;;;;4.10;3.80;;;23.50;99.90;;;;;;5027327;28;20424;-61
2021/04/27 11:00:04;;;;;;;4.20;3.93;;;23.20;99.90;;;;;;5028864;28;20464;-60
2021/04/27 11:02:31;;;;;;;5.10;4.70;;;23.50;99.90;;;;;;5013833;28;20503;-59
2021/04/27 11:05:13;;;;;;;4.97;4.60;;;23.80;99.90;;;;;;5027960;28;20919;-59
2021/04/27 11:07:39;;;;;;;5.00;4.60;;;23.90;99.90;;;;;;5022594;28;20489;-59
2021/04/27 11:10:04;;;;;;;4.63;4.33;;;24.10;99.90;;;;;;5027786;28;20425;-59
2021/04/27 11:12:44;;;;;;;3.83;3.53;;;24.10;99.90;;;;;;5028428;28;20228;-59
2021/04/27 11:15:19;;;;;;;4.03;3.50;;;24.30;99.90;;;;;;5027809;28;20166;-59
2021/04/27 11:18:08;;;;;;;3.90;3.60;;;24.10;99.90;;;;;;5024249;28;21039;-58
2021/04/27 11:21:11;;;;;;;3.43;3.13;;;24.20;99.90;;;;;;5028512;28;20496;-59
2021/04/27 11:23:48;;;;;;;3.70;3.50;;;24.40;99.90;;;;;;5022248;28;20439;-59
2021/04/27 11:26:32;;;;;;;3.97;3.67;;;24.30;99.90;;;;;;5025001;28;20416;-59
2021/04/27 11:28:59;;;;;;;3.97;3.60;;;24.60;99.90;;;;;;5027618;28;20751;-59
2021/04/27 11:31:25;;;;;;;5.10;4.73;;;24.50;99.90;;;;;;5021282;28;20998;-59
2021/04/27 11:34:02;;;;;;;3.90;3.70;;;24.80;99.90;;;;;;5027992;28;20445;-60
2021/04/27 11:36:41;;;;;;;4.67;4.37;;;25.60;99.90;;;;;;5027109;28;20202;-60
2021/04/27 11:39:10;;;;;;;4.20;3.90;;;25.50;99.90;;;;;;5015958;28;20460;-60
2021/04/27 11:41:55;;;;;;;3.87;3.67;;;25.60;99.90;;;;;;5027020;28;20478;-59
2021/04/27 11:44:23;;;;;;;4.80;4.40;;;25.60;99.90;;;;;;5027638;28;20437;-57
2021/04/27 11:47:17;;;;;;;4.40;3.83;;;25.10;99.90;;;;;;5026281;28;20417;-60
2021/04/27 11:50:05;;;;;;;4.43;4.03;;;24.70;99.90;;;;;;5025986;28;20417;-60
2021/04/27 11:52:42;;;;;;;4.50;4.20;;;25.20;99.90;;;;;;5024722;28;20429;-60
2021/04/27 11:55:21;;;;;;;4.70;4.30;;;25.70;99.90;;;;;;5022786;28;20530;-61
2021/04/27 11:58:21;;;;;;;4.53;4.13;;;26.10;99.90;;;;;;5025331;28;20421;-58
2021/04/27 12:00:47;;;;;;;4.97;4.67;;;26.00;99.90;;;;;;5010731;28;20473;-58
2021/04/27 12:03:31;;;;;;;4.90;4.50;;;25.30;99.90;;;;;;5011611;28;20479;-58
2021/04/27 12:06:18;;;;;;;5.27;4.97;;;25.10;99.90;;;;;;5008248;28;20432;-59
2021/04/27 12:08:49;;;;;;;5.10;4.80;;;25.10;99.90;;;;;;5018923;28;20418;-61
2021/04/27 12:11:19;;;;;;;4.53;4.20;;;25.10;99.90;;;;;;5015207;28;20417;-59
2021/04/27 12:13:54;;;;;;;4.57;4.17;;;25.80;99.90;;;;;;5015876;28;20406;-59
2021/04/27 12:16:21;;;;;;;4.03;3.73;;;25.40;99.90;;;;;;5025550;28;20424;-58
2021/04/27 12:19:06;;;;;;;3.70;3.50;;;25.50;99.90;;;;;;5031077;28;20483;-61
2021/04/27 12:21:49;;;;;;;3.60;3.37;;;26.40;99.90;;;;;;5019431;28;20434;-58
2021/04/27 12:24:35;;;;;;;4.07;3.77;;;26.30;99.90;;;;;;5017615;28;20428;-59
2021/04/27 12:27:04;;;;;;;3.70;3.50;;;25.90;99.90;;;;;;5014546;28;20916;-60
2021/04/27 12:29:40;;;;;;;3.90;3.70;;;24.30;99.90;;;;;;5016351;28;20402;-60
2021/04/27 12:32:17;;;;;;;4.00;3.80;;;22.90;99.90;;;;;;5016549;28;20861;-60
2021/04/27 12:34:55;;;;;;;3.80;3.60;;;22.10;99.90;;;;;;5016336;28;20849;-60
2021/04/27 12:37:21;;;;;;;3.90;3.60;;;22.80;99.90;;;;;;5026945;28;20433;-59
2021/04/27 12:39:47;;;;;;;3.70;3.40;;;23.30;99.90;;;;;;5030940;28;20461;-60
2021/04/27 12:42:22;;;;;;;4.63;3.97;;;23.00;99.90;;;;;;5031123;28;20436;-60
2021/04/27 12:45:13;;;;;;;4.40;3.67;;;22.70;99.90;;;;;;5030470;28;20177;-60
2021/04/27 12:47:39;;;;;;;3.43;3.23;;;23.00;99.90;;;;;;5028232;28;20425;-60
2021/04/27 12:50:17;;;;;;;4.40;4.03;;;23.30;99.90;;;;;;5020165;28;20444;-60
2021/04/27 12:52:49;;;;;;;4.77;4.40;;;23.50;99.90;;;;;;5038868;28;20482;-60
2021/04/27 12:55:20;;;;;;;5.00;4.00;;;24.30;99.90;;;;;;5027916;28;20799;-60
2021/04/27 12:57:46;;;;;;;4.10;3.70;;;24.70;99.90;;;;;;5030577;28;20413;-60
2021/04/27 13:00:15;;;;;;;3.87;3.67;;;23.90;99.90;;;;;;5021980;28;20811;-59
2021/04/27 13:02:41;;;;;;;4.50;3.87;;;24.30;99.90;;;;;;5030967;28;20422;-59
2021/04/27 13:05:09;;;;;;;4.23;3.93;;;24.00;99.90;;;;;;5029858;28;20934;-59
2021/04/27 13:07:43;;;;;;;4.10;3.73;;;24.00;99.90;;;;;;5030708;28;20413;-59